Oh City, Ohio
Current Conditions -  °F | °C
As of 1:13 PM on Monday 24 Nov 2014 (Local Time) from KAXV Reporting Station
Overcast Overcast  
Wind Chill: 32°   Ceiling: 1700
Heat Index: 43°   Visibility: 10mi
Dew Point: 39°   Wind: 29mph
Humidity: 87%   Direction: 220°SW
Pressure: 29.47"   Gusts: 43mph
Location:  40.7987°N, 84.6947°W
Report Text: KAXV 241813Z AUTO 22025G37KT 10SM OVC017 06/04 A2947 RMK AO2
Loading
Personal Weather Stations






























Interactive Weather Map New forecast layout! Learn more

10-Day Weather Forecast

Advertisements
Track Severe Weather on mobile